Time;durP1;ratioP1;P1;durP2;ratioP2;P2;SDS_P1;SDS_P2;PMS_P1;PMS_P2;Temp;Humidity;BMP_temperature;BMP_pressure;BME280_temperature;BME280_humidity;BME280_pressure;Samples;Min_cycle;Max_cycle;Signal;HPM_P1;HPM_P2
2022/08/16 00:02:07;;;;;;;5.78;2.90;;;;;;;22.42;47.74;99774.31;5077748;28;20032;-47
2022/08/16 00:04:32;;;;;;;4.45;2.58;;;;;;;22.41;48.15;99777.34;5076827;28;20115;-51
2022/08/16 00:06:58;;;;;;;4.00;2.45;;;;;;;22.39;48.04;99779.56;5076322;28;20023;-48
2022/08/16 00:09:25;;;;;;;2.42;2.22;;;;;;;22.36;48.15;99783.69;5076118;28;20531;-47
2022/08/16 00:11:51;;;;;;;5.15;2.80;;;;;;;22.30;49.59;99786.75;5076600;28;20036;-50
2022/08/16 00:14:21;;;;;;;2.85;2.65;;;;;;;22.15;49.19;99768.56;5075880;28;20052;-45
2022/08/16 00:16:47;;;;;;;4.22;2.85;;;;;;;22.28;48.58;99783.50;5058176;28;20029;-46
2022/08/16 00:19:16;;;;;;;5.50;3.05;;;;;;;22.31;48.18;99783.75;5058177;28;20020;-47
2022/08/16 00:21:50;;;;;;;2.50;2.30;;;;;;;22.31;47.67;99783.75;5059712;28;20067;-47
2022/08/16 00:24:16;;;;;;;2.83;2.33;;;;;;;22.28;47.48;99786.25;5077366;28;20025;-46
2022/08/16 00:26:43;;;;;;;7.03;2.80;;;;;;;22.24;48.41;99796.91;5058629;28;20503;-48
2022/08/16 00:29:10;;;;;;;8.07;3.30;;;;;;;22.19;48.32;99786.84;5076341;28;20441;-46
2022/08/16 00:31:36;;;;;;;2.97;2.78;;;;;;;22.16;48.01;99792.88;5075846;28;20418;-47
2022/08/16 00:34:03;;;;;;;2.50;2.30;;;;;;;22.11;47.98;99792.13;5058085;28;20028;-46
2022/08/16 00:36:35;;;;;;;2.58;2.38;;;;;;;22.05;47.61;99794.06;5075564;28;20036;-47
2022/08/16 00:39:01;;;;;;;2.38;2.15;;;;;;;21.98;47.17;99793.59;5075363;28;20025;-48
2022/08/16 00:41:29;;;;;;;3.63;2.70;;;;;;;21.91;48.31;99791.16;5057369;28;20035;-47
2022/08/16 00:43:56;;;;;;;2.40;2.20;;;;;;;21.87;47.63;99787.38;5057210;28;20123;-48
2022/08/16 00:46:29;;;;;;;2.92;2.15;;;;;;;21.81;48.19;99792.06;5057163;28;20111;-47
2022/08/16 00:48:55;;;;;;;1.90;1.80;;;;;;;21.75;47.30;99795.94;5074798;28;20494;-46
2022/08/16 00:51:23;;;;;;;2.10;1.88;;;;;;;21.71;47.76;99783.13;5057918;28;20052;-47
2022/08/16 00:53:50;;;;;;;2.88;1.75;;;;;;;21.66;47.40;99792.19;5057473;28;20428;-47
2022/08/16 00:56:21;;;;;;;3.72;1.70;;;;;;;21.58;47.40;99790.88;5057788;28;20024;-50
2022/08/16 00:58:47;;;;;;;4.47;2.40;;;;;;;21.49;48.70;99783.53;5057040;28;20106;-46
2022/08/16 01:01:15;;;;;;;1.92;1.83;;;;;;;21.50;47.63;99783.25;5074962;28;20024;-48
2022/08/16 01:03:44;;;;;;;1.90;1.80;;;;;;;21.40;48.06;99781.38;5074964;28;20080;-46
2022/08/16 01:06:12;;;;;;;2.47;1.75;;;;;;;21.38;48.16;99777.31;5075128;28;20055;-47
2022/08/16 01:08:39;;;;;;;1.60;1.50;;;;;;;21.27;47.93;99762.91;5057365;28;20369;-47
2022/08/16 01:11:06;;;;;;;4.63;2.38;;;;;;;21.31;48.99;99769.44;5074531;28;20146;-46
2022/08/16 01:13:36;;;;;;;2.50;1.90;;;;;;;21.29;48.57;99763.44;5074515;28;20024;-47
2022/08/16 01:16:06;;;;;;;7.85;2.60;;;;;;;21.23;49.40;99768.09;5074377;28;20516;-50
2022/08/16 01:18:37;;;;;;;4.35;2.30;;;;;;;21.24;49.08;99768.91;5074610;28;20028;-48
2022/08/16 01:21:25;;;;;;;4.38;2.63;;;;;;;21.25;49.74;99765.09;5056299;28;20066;-49
2022/08/16 01:24:17;;;;;;;1.92;1.83;;;;;;;21.24;48.47;99761.53;5056232;28;20032;-47
2022/08/16 01:26:46;;;;;;;2.67;2.42;;;;;;;21.11;48.23;99734.03;5073084;28;20028;-47
2022/08/16 01:29:17;;;;;;;3.20;2.90;;;;;;;21.20;48.33;99751.47;5056539;28;20381;-48
2022/08/16 01:31:43;;;;;;;2.40;2.20;;;;;;;21.08;48.20;99741.69;5073363;28;20032;-47
2022/08/16 01:34:11;;;;;;;3.63;2.50;;;;;;;21.17;48.54;99754.75;5074140;28;20078;-48
2022/08/16 01:36:37;;;;;;;3.55;2.03;;;;;;;21.15;48.17;99754.22;5074044;28;20373;-47
2022/08/16 01:39:10;;;;;;;6.75;2.35;;;;;;;21.12;49.04;99747.41;5073669;28;20044;-46
2022/08/16 01:41:36;;;;;;;2.20;2.00;;;;;;;21.07;47.86;99748.25;5072951;28;20032;-46
2022/08/16 01:44:02;;;;;;;3.83;2.15;;;;;;;21.07;48.11;99761.09;5073979;28;20029;-48
2022/08/16 01:46:33;;;;;;;5.65;3.00;;;;;;;20.96;48.51;99746.66;5056264;28;20032;-47
2022/08/16 01:49:04;;;;;;;3.97;2.13;;;;;;;21.02;48.58;99755.66;5074222;28;20021;-47
2022/08/16 01:51:30;;;;;;;2.33;2.13;;;;;;;20.90;48.00;99747.00;5056000;28;20063;-49
2022/08/16 01:53:56;;;;;;;3.80;2.58;;;;;;;20.99;48.44;99772.59;5073939;28;20111;-49
2022/08/16 01:56:24;;;;;;;2.03;1.90;;;;;;;20.95;48.13;99752.41;5074493;28;20025;-47
2022/08/16 01:58:51;;;;;;;4.10;2.38;;;;;;;20.94;48.47;99764.44;5072454;28;20078;-48
2022/08/16 02:01:17;;;;;;;3.10;2.80;;;;;;;20.89;48.59;99770.72;5073939;28;20488;-47
2022/08/16 02:03:43;;;;;;;3.60;2.08;;;;;;;20.82;48.43;99759.28;5073893;28;20037;-47
2022/08/16 02:06:09;;;;;;;2.47;1.83;;;;;;;20.85;48.46;99770.44;5073644;28;20028;-47
2022/08/16 02:08:34;;;;;;;1.92;1.67;;;;;;;20.79;48.51;99768.84;5055684;28;20071;-47
2022/08/16 02:11:04;;;;;;;2.58;2.00;;;;;;;20.71;48.97;99765.88;5055904;28;20071;-47
2022/08/16 02:13:30;;;;;;;1.67;1.50;;;;;;;20.69;48.95;99772.44;5056074;28;20077;-47
2022/08/16 02:15:56;;;;;;;2.60;2.00;;;;;;;20.61;49.36;99759.34;5056571;28;20037;-48
2022/08/16 02:18:22;;;;;;;2.85;2.30;;;;;;;20.61;49.74;99773.00;5056414;28;20031;-47
2022/08/16 02:20:50;;;;;;;2.20;2.00;;;;;;;20.54;49.47;99755.25;5055818;28;20496;-47
2022/08/16 02:23:17;;;;;;;3.83;2.00;;;;;;;20.52;49.98;99757.44;5072647;28;20024;-47
2022/08/16 02:25:43;;;;;;;1.98;1.70;;;;;;;20.49;49.74;99759.63;5055884;28;20032;-47
2022/08/16 02:28:09;;;;;;;2.30;1.70;;;;;;;20.48;49.83;99757.19;5073457;28;20021;-47
2022/08/16 02:30:39;;;;;;;3.08;1.70;;;;;;;20.38;50.05;99747.13;5073918;28;20380;-48
2022/08/16 02:33:06;;;;;;;2.20;1.60;;;;;;;20.45;49.92;99764.03;5073417;28;20369;-47
2022/08/16 02:35:33;;;;;;;2.35;2.15;;;;;;;20.47;50.01;99764.56;5073640;28;20028;-48
2022/08/16 02:37:59;;;;;;;1.80;1.70;;;;;;;20.45;49.72;99761.28;5073326;28;20169;-50
2022/08/16 02:40:26;;;;;;;2.63;2.42;;;;;;;20.43;50.29;99760.75;5073601;28;20071;-49
2022/08/16 02:42:54;;;;;;;1.95;1.85;;;;;;;20.44;50.09;99761.56;5075952;28;20357;-47
2022/08/16 02:45:23;;;;;;;8.35;2.20;;;;;;;20.38;50.59;99759.94;5076480;28;20028;-47
2022/08/16 02:47:49;;;;;;;2.42;1.60;;;;;;;20.37;50.59;99761.03;5059668;28;20031;-50
2022/08/16 02:50:16;;;;;;;3.08;2.08;;;;;;;20.37;50.55;99761.84;5077059;28;20044;-48
2022/08/16 02:52:42;;;;;;;3.90;2.60;;;;;;;20.37;50.78;99750.13;5077751;28;20099;-45
2022/08/16 02:55:08;;;;;;;1.95;1.30;;;;;;;20.32;50.68;99750.97;5076556;28;20464;-45
2022/08/16 02:57:34;;;;;;;1.88;1.77;;;;;;;20.31;50.67;99752.84;5077184;28;20128;-46
2022/08/16 03:00:06;;;;;;;1.73;1.63;;;;;;;20.28;51.00;99753.44;5077059;28;20036;-46
2022/08/16 03:02:33;;;;;;;2.38;2.17;;;;;;;20.17;51.69;99749.09;5077485;28;20416;-47
2022/08/16 03:04:59;;;;;;;3.20;2.80;;;;;;;20.08;52.26;99758.91;5076878;28;20047;-49
2022/08/16 03:07:25;;;;;;;3.08;2.67;;;;;;;20.00;52.44;99756.72;5077240;28;20048;-47
2022/08/16 03:09:50;;;;;;;2.65;2.05;;;;;;;20.04;51.98;99755.91;5058678;28;20492;-45
2022/08/16 03:12:18;;;;;;;1.90;1.80;;;;;;;20.04;52.09;99750.47;5076738;28;20048;-46
2022/08/16 03:14:44;;;;;;;1.70;1.60;;;;;;;20.10;52.02;99757.53;5042763;28;20440;-46
2022/08/16 03:17:10;;;;;;;1.90;1.80;;;;;;;20.03;51.98;99739.81;5076724;28;20033;-45
2022/08/16 03:19:36;;;;;;;1.58;1.48;;;;;;;20.12;52.14;99757.25;5077142;28;20115;-45
2022/08/16 03:22:02;;;;;;;1.80;1.70;;;;;;;20.10;52.13;99764.91;5059349;28;20082;-46
2022/08/16 03:24:27;;;;;;;2.40;2.20;;;;;;;20.03;52.15;99757.00;5076929;28;20020;-46
2022/08/16 03:26:53;;;;;;;3.47;2.83;;;;;;;20.06;53.27;99772.00;5076583;28;20107;-46
2022/08/16 03:29:20;;;;;;;2.22;2.08;;;;;;;19.98;52.94;99764.34;5076687;28;20032;-45
2022/08/16 03:31:46;;;;;;;2.28;2.00;;;;;;;19.96;52.62;99761.09;5058875;28;20479;-46
2022/08/16 03:34:12;;;;;;;1.90;1.80;;;;;;;20.01;52.56;99752.91;5076886;28;20362;-46
2022/08/16 03:36:37;;;;;;;1.70;1.60;;;;;;;20.01;52.63;99763.81;5058755;28;20040;-47
2022/08/16 03:39:03;;;;;;;1.80;1.70;;;;;;;20.00;52.51;99759.44;5059202;28;20028;-47
2022/08/16 03:41:29;;;;;;;2.05;1.95;;;;;;;20.04;52.73;99769.53;5058366;28;20024;-47
2022/08/16 03:43:55;;;;;;;1.88;1.77;;;;;;;19.95;52.82;99756.72;5058223;28;20029;-46
2022/08/16 03:46:21;;;;;;;2.15;1.98;;;;;;;20.03;52.77;99767.09;5058585;28;20028;-46
2022/08/16 03:48:48;;;;;;;2.05;1.95;;;;;;;20.04;53.01;99775.00;5058536;28;20025;-47
2022/08/16 03:51:14;;;;;;;2.10;2.00;;;;;;;19.95;53.03;99759.44;5075949;28;20072;-47
2022/08/16 03:53:41;;;;;;;2.53;1.80;;;;;;;20.01;53.09;99769.25;5075215;28;20034;-47
2022/08/16 03:56:07;;;;;;;1.80;1.70;;;;;;;19.98;53.19;99765.16;5075051;28;20104;-47
2022/08/16 03:58:34;;;;;;;1.95;1.85;;;;;;;20.04;53.13;99776.88;5076042;28;20404;-47
2022/08/16 04:01:00;;;;;;;2.13;1.90;;;;;;;19.97;53.04;99768.19;5075959;28;20060;-46
2022/08/16 04:03:27;;;;;;;2.88;2.50;;;;;;;20.02;53.20;99776.34;5076303;28;20064;-46
2022/08/16 04:05:53;;;;;;;2.55;1.60;;;;;;;20.01;52.91;99772.81;5075924;28;20043;-50
2022/08/16 04:08:20;;;;;;;2.17;2.08;;;;;;;20.02;52.80;99777.19;5075600;28;20028;-47
2022/08/16 04:10:47;;;;;;;2.60;2.40;;;;;;;19.97;53.08;99769.00;5076218;28;20029;-46
2022/08/16 04:13:14;;;;;;;3.03;2.58;;;;;;;20.00;52.80;99781.25;5075336;28;20028;-47
2022/08/16 04:15:40;;;;;;;2.30;2.20;;;;;;;19.97;52.98;99785.34;5075657;28;20186;-46
2022/08/16 04:18:06;;;;;;;3.00;2.22;;;;;;;20.01;53.23;99786.44;5075502;28;20040;-47
2022/08/16 04:20:32;;;;;;;2.40;2.20;;;;;;;19.92;53.31;99790.78;5075391;28;20029;-46
2022/08/16 04:22:59;;;;;;;2.45;2.25;;;;;;;19.93;53.42;99789.72;5075998;28;20028;-48
2022/08/16 04:25:27;;;;;;;2.05;1.75;;;;;;;19.87;53.42;99786.16;5074068;28;20058;-48
2022/08/16 04:27:52;;;;;;;2.25;2.05;;;;;;;19.90;53.60;99795.69;5075864;28;20544;-46
2022/08/16 04:30:21;;;;;;;2.55;2.00;;;;;;;19.87;53.57;99797.06;5075225;28;20036;-48
2022/08/16 04:32:47;;;;;;;6.47;2.97;;;;;;;19.80;53.74;99780.16;5057185;28;20168;-46
2022/08/16 04:35:15;;;;;;;2.20;2.10;;;;;;;19.82;53.75;99791.63;5057568;28;20032;-48
2022/08/16 04:37:46;;;;;;;2.35;2.13;;;;;;;19.80;53.89;99799.25;5057326;28;20029;-47
2022/08/16 04:40:13;;;;;;;3.58;2.10;;;;;;;19.72;53.96;99795.16;5075085;28;20036;-47
2022/08/16 04:42:41;;;;;;;4.47;3.40;;;;;;;19.70;54.70;99801.91;5075148;28;20117;-46
2022/08/16 04:45:09;;;;;;;2.80;2.60;;;;;;;19.66;54.27;99801.63;5075267;28;20028;-46
2022/08/16 04:47:35;;;;;;;2.60;2.40;;;;;;;19.69;54.27;99806.56;5075049;28;20016;-49
2022/08/16 04:50:05;;;;;;;4.57;2.47;;;;;;;19.66;54.36;99789.94;5074893;28;20055;-46
2022/08/16 04:52:31;;;;;;;2.67;2.47;;;;;;;19.74;53.70;99794.84;5056922;28;20040;-46
2022/08/16 04:54:57;;;;;;;3.00;2.70;;;;;;;19.73;54.07;99798.69;5074962;28;20086;-46
2022/08/16 04:57:23;;;;;;;2.70;2.50;;;;;;;19.74;54.29;99805.75;5074624;28;20028;-47
2022/08/16 04:59:48;;;;;;;2.50;2.30;;;;;;;19.62;54.10;99791.56;5075028;28;20465;-47
2022/08/16 05:02:14;;;;;;;2.95;2.65;;;;;;;19.68;54.15;99812.25;5075099;28;20028;-47
2022/08/16 05:04:40;;;;;;;3.75;2.88;;;;;;;19.76;53.92;99824.56;5056723;28;20037;-47
2022/08/16 05:07:06;;;;;;;3.60;2.95;;;;;;;19.75;54.21;99823.75;5074818;28;20103;-47
2022/08/16 05:09:31;;;;;;;4.03;3.63;;;;;;;19.71;54.48;99823.44;5040372;28;20027;-48
2022/08/16 05:11:57;;;;;;;2.60;2.40;;;;;;;19.73;54.28;99826.75;5074395;28;20032;-50
2022/08/16 05:14:23;;;;;;;2.20;2.05;;;;;;;19.76;54.40;99828.13;5056729;28;20028;-47
2022/08/16 05:16:49;;;;;;;4.53;3.70;;;;;;;19.67;54.99;99827.81;5074011;28;20465;-47
2022/08/16 05:19:16;;;;;;;3.22;2.90;;;;;;;19.60;55.00;99823.69;5074706;28;20480;-47
2022/08/16 05:21:41;;;;;;;2.58;2.38;;;;;;;19.73;54.60;99829.47;5073964;28;20102;-47
2022/08/16 05:24:07;;;;;;;3.50;2.50;;;;;;;19.79;54.67;99829.47;5074742;28;20066;-47
2022/08/16 05:26:36;;;;;;;2.47;2.20;;;;;;;19.82;55.02;99832.47;5074815;28;20024;-47
2022/08/16 05:29:03;;;;;;;3.97;3.47;;;;;;;19.85;54.79;99837.38;5074232;28;20032;-47
2022/08/16 05:31:29;;;;;;;4.00;3.60;;;;;;;19.86;54.46;99838.22;5074392;28;20047;-46
2022/08/16 05:33:55;;;;;;;4.95;3.33;;;;;;;19.85;54.60;99839.28;5074687;28;20024;-47
2022/08/16 05:36:21;;;;;;;2.97;2.78;;;;;;;19.90;54.01;99844.75;5055996;28;20473;-47
2022/08/16 05:38:47;;;;;;;4.57;4.18;;;;;;;19.88;55.19;99831.38;5073917;28;20060;-48
2022/08/16 05:41:14;;;;;;;4.60;4.20;;;;;;;19.76;55.69;99832.72;5055927;28;20052;-46
2022/08/16 05:43:40;;;;;;;3.30;2.60;;;;;;;19.76;55.49;99841.75;5072853;28;20107;-47
2022/08/16 05:46:06;;;;;;;5.53;2.63;;;;;;;19.71;54.91;99837.06;5039612;28;20024;-46
2022/08/16 05:48:32;;;;;;;4.28;2.47;;;;;;;19.81;54.88;99839.00;5073742;28;20033;-47
2022/08/16 05:50:58;;;;;;;2.40;2.20;;;;;;;19.90;54.85;99844.75;5073719;28;20044;-47
2022/08/16 05:53:24;;;;;;;2.70;2.50;;;;;;;19.89;54.70;99832.19;5072691;28;20392;-48
2022/08/16 05:55:50;;;;;;;3.25;2.90;;;;;;;19.91;54.25;99832.78;5056134;28;20033;-46
2022/08/16 05:58:16;;;;;;;3.47;3.28;;;;;;;20.02;54.58;99847.19;5055748;28;20052;-48
2022/08/16 06:00:41;;;;;;;6.30;5.15;;;;;;;20.08;54.27;99859.78;5056021;28;20036;-49
2022/08/16 06:03:07;;;;;;;5.22;3.50;;;;;;;20.08;53.83;99848.88;5073572;28;20043;-47
2022/08/16 06:05:33;;;;;;;4.75;3.65;;;;;;;20.17;53.72;99860.88;5073833;28;20036;-47
2022/08/16 06:07:59;;;;;;;4.22;3.72;;;;;;;20.09;54.12;99829.47;5072973;28;20025;-47
2022/08/16 06:10:25;;;;;;;4.60;4.30;;;;;;;20.13;54.21;99834.41;5073683;28;20028;-47
2022/08/16 06:12:50;;;;;;;5.22;4.72;;;;;;;20.17;54.13;99832.75;5072806;28;20103;-48
2022/08/16 06:15:19;;;;;;;4.30;4.00;;;;;;;20.19;54.03;99855.97;5072026;28;20043;-47
2022/08/16 06:17:46;;;;;;;4.28;3.90;;;;;;;20.18;53.77;99839.88;5075871;28;20057;-47
2022/08/16 06:20:16;;;;;;;3.35;3.03;;;;;;;20.15;53.60;99846.69;5060189;28;20035;-46
2022/08/16 06:22:44;;;;;;;5.05;4.15;;;;;;;20.18;53.72;99851.56;5078030;28;20032;-47
2022/08/16 06:25:11;;;;;;;3.75;3.45;;;;;;;20.16;53.88;99856.50;5059516;28;20036;-48
2022/08/16 06:27:38;;;;;;;7.72;5.60;;;;;;;20.17;53.95;99857.28;5059600;28;20025;-47
2022/08/16 06:30:07;;;;;;;3.80;3.50;;;;;;;20.14;53.73;99847.78;5077781;28;20028;-47
2022/08/16 06:32:33;;;;;;;6.25;5.00;;;;;;;20.09;53.99;99854.03;5077856;28;20032;-47
2022/08/16 06:34:59;;;;;;;4.63;3.72;;;;;;;20.01;53.58;99846.41;5078711;28;20122;-46
2022/08/16 06:37:25;;;;;;;5.93;5.00;;;;;;;20.11;53.72;99865.50;5060328;28;20029;-46
2022/08/16 06:39:55;;;;;;;5.50;4.95;;;;;;;20.09;53.97;99864.94;5077214;28;20036;-46
2022/08/16 06:42:21;;;;;;;4.25;3.85;;;;;;;20.03;53.86;99854.31;5077590;28;20411;-46
2022/08/16 06:44:47;;;;;;;3.88;3.58;;;;;;;20.08;53.91;99867.94;5059444;28;20028;-46
2022/08/16 06:47:14;;;;;;;3.35;3.15;;;;;;;20.09;54.03;99864.13;5077715;28;20036;-46
2022/08/16 06:49:39;;;;;;;3.63;3.33;;;;;;;20.11;54.14;99870.94;5077391;28;20103;-46
2022/08/16 06:52:06;;;;;;;4.22;3.92;;;;;;;20.11;53.86;99870.09;5077039;28;20119;-48
2022/08/16 06:54:33;;;;;;;3.10;2.90;;;;;;;20.15;53.97;99867.66;5060023;28;20056;-48
2022/08/16 06:56:58;;;;;;;3.13;2.92;;;;;;;20.16;53.72;99870.13;5059279;28;20025;-47
2022/08/16 06:59:24;;;;;;;4.38;3.97;;;;;;;20.18;53.82;99878.84;5076577;28;20110;-47
2022/08/16 07:01:50;;;;;;;8.32;4.47;;;;;;;20.20;54.00;99873.13;5076773;28;20046;-50
2022/08/16 07:04:17;;;;;;;4.57;4.22;;;;;;;20.21;54.23;99874.78;5077007;28;20039;-48
2022/08/16 07:06:43;;;;;;;5.05;4.65;;;;;;;20.22;53.86;99873.66;5076536;28;20067;-47
2022/08/16 07:09:11;;;;;;;14.02;6.00;;;;;;;20.26;53.78;99872.88;5076716;28;20070;-47
2022/08/16 07:11:37;;;;;;;6.03;4.30;;;;;;;20.30;53.82;99884.03;5076830;28;20028;-47
2022/08/16 07:14:02;;;;;;;4.15;3.83;;;;;;;20.29;53.53;99883.22;5077175;28;20463;-47
2022/08/16 07:16:28;;;;;;;4.13;3.80;;;;;;;20.31;53.84;99883.75;5076537;28;20032;-47
2022/08/16 07:18:56;;;;;;;7.30;4.70;;;;;;;20.33;53.80;99875.31;5076655;28;20040;-47
2022/08/16 07:21:22;;;;;;;4.63;3.88;;;;;;;20.34;53.67;99876.94;5075369;28;20412;-48
2022/08/16 07:23:48;;;;;;;3.40;3.10;;;;;;;20.36;53.73;99888.41;5076410;28;20421;-49
2022/08/16 07:26:19;;;;;;;4.70;4.10;;;;;;;20.40;53.95;99875.84;5058300;28;20123;-47
2022/08/16 07:28:45;;;;;;;3.70;3.35;;;;;;;20.57;53.47;99888.38;5057315;28;20119;-47
2022/08/16 07:31:11;;;;;;;4.13;3.72;;;;;;;20.60;53.56;99885.97;5076519;28;20111;-47
2022/08/16 07:33:38;;;;;;;4.15;3.85;;;;;;;20.69;53.45;99881.59;5075884;28;20028;-51
2022/08/16 07:36:05;;;;;;;5.10;4.78;;;;;;;20.79;53.65;99896.31;5076150;28;20021;-46
2022/08/16 07:38:31;;;;;;;4.47;4.13;;;;;;;20.86;53.54;99897.66;5076189;28;20385;-47
2022/08/16 07:40:57;;;;;;;16.20;6.97;;;;;;;21.01;53.04;99906.91;5075370;28;20040;-48
2022/08/16 07:43:24;;;;;;;12.40;4.70;;;;;;;21.11;52.82;99908.78;5058423;28;20035;-47
2022/08/16 07:45:50;;;;;;;10.40;4.35;;;;;;;21.23;52.68;99906.59;5058368;28;20040;-47
2022/08/16 07:48:16;;;;;;;7.88;4.47;;;;;;;21.35;51.92;99900.78;5075246;28;20381;-47
2022/08/16 07:50:43;;;;;;;4.40;4.00;;;;;;;21.43;51.76;99902.94;5076425;28;20055;-47
2022/08/16 07:53:10;;;;;;;10.15;5.13;;;;;;;21.56;51.96;99918.78;5076560;28;20384;-48
2022/08/16 07:55:36;;;;;;;5.45;4.90;;;;;;;21.66;51.53;99917.91;5075088;28;20028;-45
2022/08/16 07:58:03;;;;;;;7.00;4.55;;;;;;;21.77;51.25;99915.94;5058497;28;20434;-45
2022/08/16 08:00:29;;;;;;;4.90;4.47;;;;;;;21.92;51.01;99917.78;5076340;28;20123;-46
2022/08/16 08:02:54;;;;;;;5.07;4.57;;;;;;;;;;5058607;28;20034;-47
2022/08/16 08:05:22;;;;;;;3.85;3.55;;;;;;;22.10;50.64;99911.63;5058558;28;20421;-46
2022/08/16 08:07:48;;;;;;;4.15;3.75;;;;;;;22.23;50.68;99915.63;5076408;28;20108;-46
2022/08/16 08:10:16;;;;;;;3.72;3.10;;;;;;;22.29;50.43;99913.69;5058250;28;20431;-46
2022/08/16 08:12:43;;;;;;;16.52;4.25;;;;;;;22.32;50.47;99924.06;5074613;28;20036;-50
2022/08/16 08:15:10;;;;;;;15.50;4.30;;;;;;;22.39;50.30;99927.31;5075630;28;20033;-47
2022/08/16 08:17:38;;;;;;;16.95;4.70;;;;;;;22.45;50.61;99931.63;5057423;28;20032;-46
2022/08/16 08:20:07;;;;;;;19.08;5.03;;;;;;;22.46;49.92;99932.47;5057661;28;20028;-46
2022/08/16 08:22:33;;;;;;;14.65;5.85;;;;;;;22.47;50.30;99945.03;5076404;28;20130;-47
2022/08/16 08:24:59;;;;;;;13.52;4.45;;;;;;;22.38;50.22;99936.59;5075708;28;20051;-47
2022/08/16 08:27:25;;;;;;;4.93;4.53;;;;;;;22.45;49.93;99933.56;5075491;28;20024;-48
2022/08/16 08:29:51;;;;;;;4.55;4.10;;;;;;;22.47;50.05;99945.84;5075431;28;20476;-46
2022/08/16 08:32:20;;;;;;;4.63;4.22;;;;;;;22.51;49.95;99940.59;5075516;28;20060;-48
2022/08/16 08:34:47;;;;;;;7.53;5.13;;;;;;;22.59;49.72;99945.50;5057586;28;20120;-47
2022/08/16 08:37:13;;;;;;;3.65;3.38;;;;;;;22.72;49.37;99942.09;5075423;28;20044;-46
2022/08/16 08:39:40;;;;;;;3.80;3.55;;;;;;;22.92;49.31;99940.25;5074109;28;20083;-48
2022/08/16 08:42:06;;;;;;;6.65;3.95;;;;;;;23.11;49.25;99938.44;5075309;28;20050;-47
2022/08/16 08:44:33;;;;;;;2.95;2.75;;;;;;;23.25;48.30;99933.06;5075582;28;20039;-46
2022/08/16 08:47:02;;;;;;;4.85;4.30;;;;;;;23.56;47.96;99952.72;5057106;28;20120;-47
2022/08/16 08:49:30;;;;;;;8.40;4.90;;;;;;;23.81;47.73;99949.97;5074865;28;20028;-47
2022/08/16 08:51:57;;;;;;;4.47;4.18;;;;;;;23.99;47.57;99951.13;5073483;28;20056;-46
2022/08/16 08:54:25;;;;;;;4.30;3.58;;;;;;;24.35;46.88;99959.66;5073657;28;20389;-49
2022/08/16 08:56:52;;;;;;;8.35;6.05;;;;;;;24.57;46.48;99961.78;5075199;28;20037;-47
2022/08/16 08:59:18;;;;;;;8.20;5.43;;;;;;;24.75;45.88;99962.03;5074596;28;20036;-47
2022/08/16 09:01:45;;;;;;;4.15;3.55;;;;;;;24.93;45.60;99956.50;5075408;28;20032;-47
2022/08/16 09:04:11;;;;;;;3.97;3.65;;;;;;;25.25;44.99;99954.81;5056937;28;20032;-48
2022/08/16 09:06:37;;;;;;;5.22;4.78;;;;;;;25.87;44.09;99959.06;5057798;28;20033;-47
2022/08/16 09:09:05;;;;;;;4.72;4.38;;;;;;;26.10;43.34;99957.22;5074151;28;20033;-47
2022/08/16 09:11:32;;;;;;;8.98;3.72;;;;;;;26.52;42.73;99968.06;5057902;28;20056;-47
2022/08/16 09:13:58;;;;;;;6.75;5.40;;;;;;;26.65;42.12;99956.19;5057402;28;20059;-47
2022/08/16 09:16:24;;;;;;;4.22;3.92;;;;;;;26.57;42.48;99965.19;5040082;28;20056;-48
2022/08/16 09:18:51;;;;;;;5.38;4.28;;;;;;;26.53;42.67;99956.75;5056932;28;20501;-48
2022/08/16 09:21:16;;;;;;;4.32;4.03;;;;;;;26.54;42.60;99957.56;5074280;28;20098;-48
2022/08/16 09:23:42;;;;;;;5.30;4.32;;;;;;;26.88;42.04;99958.94;5074701;28;20465;-47
2022/08/16 09:26:10;;;;;;;4.25;3.95;;;;;;;27.37;41.15;99957.09;5076180;28;20414;-50
2022/08/16 09:28:37;;;;;;;5.00;4.50;;;;;;;27.68;40.65;99953.47;5058910;28;20518;-48
2022/08/16 09:31:05;;;;;;;14.05;5.78;;;;;;;27.68;39.88;99956.22;5075788;28;20042;-46
2022/08/16 09:33:30;;;;;;;3.97;3.58;;;;;;;28.68;39.55;99962.81;5074722;28;20071;-47
2022/08/16 09:35:56;;;;;;;6.30;3.58;;;;;;;29.55;38.13;99951.47;5074563;28;20445;-49
2022/08/16 09:38:23;;;;;;;7.97;5.65;;;;;;;30.78;35.19;99956.88;5074428;28;20055;-50
2022/08/16 09:40:49;;;;;;;5.68;4.68;;;;;;;30.12;36.22;99966.72;5072764;28;20107;-49
2022/08/16 09:43:18;;;;;;;8.55;5.38;;;;;;;29.39;35.33;99964.22;5074399;28;20028;-46
2022/08/16 09:45:45;;;;;;;8.45;5.45;;;;;;;29.06;36.14;99971.16;5074356;28;20534;-47
2022/08/16 09:48:13;;;;;;;5.60;3.78;;;;;;;29.84;36.24;99967.25;5074223;28;20051;-48
2022/08/16 09:50:40;;;;;;;3.63;3.33;;;;;;;30.15;35.85;99965.25;5056134;28;20048;-47
2022/08/16 09:53:12;;;;;;;2.90;2.70;;;;;;;31.93;33.50;99961.47;5074000;28;20028;-46
2022/08/16 09:55:38;;;;;;;3.13;2.58;;;;;;;32.08;31.16;99961.94;5073035;28;20068;-46
2022/08/16 09:58:04;;;;;;;7.88;2.60;;;;;;;31.72;33.09;99939.41;5074475;28;20028;-47
2022/08/16 10:00:30;;;;;;;5.00;3.40;;;;;;;31.13;33.28;99951.78;5056172;28;20036;-48
2022/08/16 10:02:57;;;;;;;10.82;5.25;;;;;;;30.58;32.21;99956.56;5074243;28;20028;-47
2022/08/16 10:05:23;;;;;;;4.70;3.05;;;;;;;29.85;35.03;99960.56;5074457;28;20365;-51
2022/08/16 10:07:51;;;;;;;7.75;3.92;;;;;;;29.81;35.10;99961.56;5073993;28;20025;-47
2022/08/16 10:10:20;;;;;;;6.40;3.53;;;;;;;29.71;34.54;99955.25;5074485;28;20035;-51
2022/08/16 10:15:33;;;;;;;6.03;3.45;;;;;;;30.14;33.92;99947.00;5029010;28;20457;-47
2022/08/16 10:18:01;;;;;;;5.50;3.20;;;;;;;30.33;34.33;99957.63;5074802;28;20071;-46
2022/08/16 10:20:28;;;;;;;2.92;2.53;;;;;;;30.15;34.46;99949.44;5056833;28;20046;-45
2022/08/16 10:22:54;;;;;;;4.20;3.05;;;;;;;29.86;34.26;99953.88;5075208;28;20383;-47
2022/08/16 10:25:21;;;;;;;6.88;4.30;;;;;;;29.34;35.24;99956.91;5074449;28;20033;-46
2022/08/16 10:27:47;;;;;;;8.30;5.32;;;;;;;28.76;35.16;99965.53;5073057;28;20094;-47
2022/08/16 10:30:15;;;;;;;5.50;3.55;;;;;;;28.56;35.80;99968.97;5075019;28;20033;-47
2022/08/16 10:32:41;;;;;;;5.72;3.47;;;;;;;28.92;35.94;99956.75;5076044;28;20037;-47
2022/08/16 10:35:07;;;;;;;3.92;3.53;;;;;;;29.39;35.65;99951.22;5075770;28;20035;-50
2022/08/16 10:37:33;;;;;;;9.40;4.70;;;;;;;29.65;34.68;99951.06;5057768;28;20062;-45
2022/08/16 10:40:00;;;;;;;10.38;5.10;;;;;;;31.02;31.91;99945.88;5075514;28;20032;-51
2022/08/16 10:42:27;;;;;;;3.80;3.30;;;;;;;30.41;32.95;99959.53;5075902;28;20042;-49
2022/08/16 10:44:53;;;;;;;10.45;5.50;;;;;;;29.66;33.32;99960.16;5059928;28;20032;-46
2022/08/16 10:47:19;;;;;;;5.30;4.22;;;;;;;29.08;34.25;99962.53;5059338;28;20044;-48
2022/08/16 10:49:45;;;;;;;9.40;5.20;;;;;;;28.71;34.96;99956.59;5075362;28;20082;-48
2022/08/16 10:52:11;;;;;;;4.63;3.38;;;;;;;28.82;35.21;99955.13;5074569;28;20119;-46
2022/08/16 10:54:38;;;;;;;7.45;5.10;;;;;;;28.32;35.50;99959.22;5074337;28;20063;-47
2022/08/16 10:57:04;;;;;;;6.57;5.07;;;;;;;27.94;35.55;99943.28;5056498;28;20115;-49
2022/08/16 10:59:33;;;;;;;7.30;4.53;;;;;;;28.10;34.80;99962.97;5074608;28;20098;-46
2022/08/16 11:02:00;;;;;;;6.50;4.10;;;;;;;28.04;34.70;99969.75;5072921;28;20025;-46
2022/08/16 11:04:26;;;;;;;6.35;4.40;;;;;;;28.02;35.31;99963.75;5077373;28;20085;-46
2022/08/16 11:06:53;;;;;;;8.23;3.97;;;;;;;28.04;35.43;99974.47;5076543;28;20063;-46
2022/08/16 11:09:19;;;;;;;4.65;4.30;;;;;;;28.08;35.29;99978.22;5059238;28;20074;-49
2022/08/16 11:11:45;;;;;;;4.22;3.42;;;;;;;27.92;35.57;99986.97;5078148;28;20036;-47
2022/08/16 11:14:12;;;;;;;6.00;4.75;;;;;;;27.74;35.69;99980.56;5043456;28;20055;-48
2022/08/16 11:16:38;;;;;;;4.03;3.42;;;;;;;27.47;36.56;99981.63;5059349;28;20124;-48
2022/08/16 11:19:05;;;;;;;2.95;2.75;;;;;;;27.28;36.62;99970.03;5059867;28;20048;-47
2022/08/16 11:21:31;;;;;;;4.90;4.03;;;;;;;27.10;36.95;99980.13;5077102;28;20067;-49
2022/08/16 11:23:57;;;;;;;4.45;3.90;;;;;;;26.82;37.21;99972.84;5077516;28;20414;-46
2022/08/16 11:26:23;;;;;;;8.40;3.70;;;;;;;26.49;37.85;99988.00;5060274;28;20100;-47
2022/08/16 11:28:49;;;;;;;4.45;4.15;;;;;;;26.48;37.93;99997.38;5077362;28;20043;-50
2022/08/16 11:31:17;;;;;;;8.02;3.92;;;;;;;26.24;38.25;100004.78;5077281;28;20043;-48
2022/08/16 11:33:43;;;;;;;5.43;4.32;;;;;;;26.10;38.16;99986.69;5076544;28;20354;-47
2022/08/16 11:36:09;;;;;;;4.82;3.72;;;;;;;26.15;38.30;99990.13;5079033;28;20032;-50